createdAt,value
2023-10-10T00:00:57.707Z,98163.16
2023-10-10T00:06:07.415Z,98169.34
2023-10-10T00:11:15.694Z,98169.34
2023-10-10T00:16:27.882Z,98170.41
2023-10-10T00:21:29.807Z,98161.69
2023-10-10T00:26:31.288Z,98164.38
2023-10-10T00:31:32.966Z,98147.41
2023-10-10T00:36:36.513Z,98150.31
2023-10-10T00:41:50.461Z,98158.59
2023-10-10T00:46:56.136Z,98159.41
2023-10-10T00:52:02.266Z,98164.78
2023-10-10T00:57:09.289Z,98161.06
2023-10-10T01:02:15.249Z,98159.22
2023-10-10T01:07:20.971Z,98151.97
2023-10-10T01:12:29.844Z,98146.59
2023-10-10T01:17:31.928Z,98153.63
2023-10-10T01:22:41.158Z,98144.72
2023-10-10T01:27:44.626Z,98139.53
2023-10-10T01:32:51.710Z,98144.91
2023-10-10T01:37:56.195Z,98143.09
2023-10-10T01:43:00.690Z,98151.16
2023-10-10T01:48:09.236Z,98151.97
2023-10-10T01:53:11.773Z,98156.72
2023-10-10T01:58:14.199Z,98147.41
2023-10-10T02:03:19.442Z,98156.53
2023-10-10T02:08:23.389Z,98156.53
2023-10-10T02:13:26.543Z,98144.09
2023-10-10T02:18:45.511Z,98146.78
2023-10-10T02:23:47.476Z,98130.66
2023-10-10T02:28:49.605Z,98143.69
2023-10-10T02:33:56.044Z,98142.44
2023-10-10T02:39:10.829Z,98149.28
2023-10-10T02:44:12.227Z,98150.31
2023-10-10T02:49:15.172Z,98151.34
2023-10-10T02:54:35.566Z,98145.78
2023-10-10T02:59:40.382Z,98149.06
2023-10-10T03:05:07.434Z,98153.63
2023-10-10T03:10:38.377Z,98155.28
2023-10-10T03:15:56.085Z,98153.63
2023-10-10T03:21:07.302Z,98155.28
2023-10-10T03:26:19.690Z,98155.28
2023-10-10T03:31:26.022Z,98149.88
2023-10-10T03:36:33.836Z,98162.31
2023-10-10T03:41:38.331Z,98162.31
2023-10-10T03:46:58.713Z,98165.84
2023-10-10T03:52:18.637Z,98155.06
2023-10-10T03:57:38.751Z,98162.31
2023-10-10T04:02:58.538Z,98169.56
2023-10-10T04:08:18.805Z,98160.06
2023-10-10T04:13:38.773Z,98163.16
2023-10-10T04:18:58.624Z,98158.38
2023-10-10T04:24:18.667Z,98152.38
2023-10-10T04:29:38.666Z,98143.50
2023-10-10T04:34:58.538Z,98151.56
2023-10-10T04:40:18.457Z,98162.31
2023-10-10T04:45:38.292Z,98153.63
2023-10-10T04:50:58.124Z,98166.44
2023-10-10T04:56:18.163Z,98178.25
2023-10-10T05:01:38.099Z,98172.63
2023-10-10T05:06:58.130Z,98164.97
2023-10-10T05:12:17.934Z,98178.81
2023-10-10T05:17:37.890Z,98181.72
2023-10-10T05:22:57.774Z,98189.19
2023-10-10T05:28:01.861Z,98205.72
2023-10-10T05:33:03.736Z,98209.44
2023-10-10T05:38:06.076Z,98212.31
2023-10-10T05:43:10.759Z,98213.19
2023-10-10T05:48:15.948Z,98199.91
2023-10-10T05:53:18.346Z,98210.50
2023-10-10T05:58:21.535Z,98211.09
2023-10-10T06:03:23.008Z,98214.41
2023-10-10T06:08:26.286Z,98212.38
2023-10-10T06:13:30.182Z,98215.47
2023-10-10T06:18:32.204Z,98215.69
2023-10-10T06:23:35.005Z,98223.16
2023-10-10T06:28:49.295Z,98223.97
2023-10-10T06:33:51.559Z,98227.31
2023-10-10T06:39:06.428Z,98228.94
2023-10-10T06:44:26.596Z,98231.03
2023-10-10T06:49:44.284Z,98236.19
2023-10-10T06:54:46.441Z,98233.72
2023-10-10T06:59:49.343Z,98236.00
2023-10-10T07:04:53.809Z,98242.41
2023-10-10T07:09:59.301Z,98237.66
2023-10-10T07:15:02.306Z,98246.38
2023-10-10T07:20:03.841Z,98248.03
2023-10-10T07:25:09.517Z,98247.59
2023-10-10T07:30:20.087Z,98252.56
2023-10-10T07:35:26.853Z,98251.34
2023-10-10T07:40:32.290Z,98264.63
2023-10-10T07:45:44.440Z,98266.25
2023-10-10T07:50:49.228Z,98277.84
2023-10-10T07:55:54.354Z,98283.44
2023-10-10T08:01:09.368Z,98281.81
2023-10-10T08:06:11.151Z,98288.69
2023-10-10T08:11:25.647Z,98277.25
2023-10-10T08:16:30.395Z,98288.66
2023-10-10T08:21:51.006Z,98286.19
2023-10-10T08:26:53.129Z,98287.59
2023-10-10T08:31:54.644Z,98286.59
2023-10-10T08:37:04.883Z,98286.56
2023-10-10T08:42:06.925Z,98291.94
2023-10-10T08:47:09.193Z,98283.22
2023-10-10T08:52:10.668Z,98280.25
2023-10-10T08:57:12.456Z,98289.34
2023-10-10T09:02:19.003Z,98289.31
2023-10-10T09:07:32.084Z,98296.56
2023-10-10T09:12:35.230Z,98300.50
2023-10-10T09:17:40.213Z,98295.91
2023-10-10T09:22:48.207Z,98300.06
2023-10-10T09:28:07.473Z,98293.84
2023-10-10T09:33:23.613Z,98294.66
2023-10-10T09:38:27.968Z,98299.63
2023-10-10T09:43:36.568Z,98294.19
2023-10-10T09:48:41.250Z,98296.66
2023-10-10T09:53:48.439Z,98303.41
2023-10-10T09:58:54.161Z,98300.06
2023-10-10T10:04:00.804Z,98300.69
2023-10-10T10:09:20.635Z,98300.63
2023-10-10T10:14:48.239Z,98296.44
2023-10-10T10:19:50.231Z,98297.31
2023-10-10T10:25:13.310Z,98296.53
2023-10-10T10:30:19.329Z,98313.16
2023-10-10T10:35:24.918Z,98314.59
2023-10-10T10:40:42.090Z,98311.66
2023-10-10T10:45:52.620Z,98298.50
2023-10-10T10:51:02.856Z,98292.81
2023-10-10T10:56:17.808Z,98294.22
2023-10-10T11:01:19.566Z,98286.91
2023-10-10T11:06:21.879Z,98281.63
2023-10-10T11:11:25.342Z,98283.63
2023-10-10T11:16:38.263Z,98284.56
2023-10-10T11:21:48.489Z,98273.28
2023-10-10T11:26:50.074Z,98282.91
2023-10-10T11:32:07.354Z,98263.00
2023-10-10T11:37:16.065Z,98270.16
2023-10-10T11:42:24.088Z,98246.94
2023-10-10T11:47:27.455Z,98241.31
2023-10-10T11:52:29.606Z,98245.28
2023-10-10T11:57:31.110Z,98239.22
2023-10-10T12:02:40.940Z,98240.34
2023-10-10T12:07:42.497Z,98245.38
2023-10-10T12:12:46.149Z,98244.75
2023-10-10T12:17:48.953Z,98231.69
2023-10-10T12:22:50.467Z,98242.16
2023-10-10T12:27:55.243Z,98229.72
2023-10-10T12:32:57.575Z,98227.16
2023-10-10T12:38:02.535Z,98235.44
2023-10-10T12:43:04.836Z,98231.91
2023-10-10T12:48:14.928Z,98222.56
2023-10-10T12:53:16.872Z,98218.56
2023-10-10T12:58:21.300Z,98211.72
2023-10-10T13:03:24.926Z,98224.16
2023-10-10T13:08:39.301Z,98213.63
2023-10-10T13:13:46.761Z,98215.19
2023-10-10T13:18:48.883Z,98213.94
2023-10-10T13:23:51.061Z,98214.13
2023-10-10T13:28:52.985Z,98218.16
2023-10-10T13:33:54.410Z,98199.38
2023-10-10T13:39:00.171Z,98192.44
2023-10-10T13:44:01.635Z,98199.84
2023-10-10T13:49:09.694Z,98201.28
2023-10-10T13:54:14.517Z,98200.81
2023-10-10T13:59:18.228Z,98192.84
2023-10-10T14:04:28.549Z,98185.13
2023-10-10T14:09:36.121Z,98184.44
2023-10-10T14:14:45.735Z,98174.44
2023-10-10T14:19:47.130Z,98169.84
2023-10-10T14:24:51.028Z,98182.22
2023-10-10T14:29:52.757Z,98175.59
2023-10-10T14:34:54.147Z,98174.69
2023-10-10T14:39:56.586Z,98159.75
2023-10-10T14:44:58.025Z,98170.47
2023-10-10T14:50:11.877Z,98159.53
2023-10-10T14:55:25.040Z,98151.34
2023-10-10T15:00:30.473Z,98145.66
2023-10-10T15:05:33.885Z,98142.38
2023-10-10T15:10:41.848Z,98143.50
2023-10-10T15:15:46.878Z,98145.03
2023-10-10T15:20:49.843Z,98145.16
2023-10-10T15:26:06.161Z,98134.50
2023-10-10T15:31:08.543Z,98150.06
2023-10-10T15:36:13.086Z,98143.13
2023-10-10T15:41:18.934Z,98146.13
2023-10-10T15:46:20.557Z,98147.25
2023-10-10T15:51:21.988Z,98140.75
2023-10-10T15:56:29.411Z,98142.94
2023-10-10T16:01:31.666Z,98142.81
2023-10-10T16:06:36.997Z,98140.16
2023-10-10T16:11:39.239Z,98142.50
2023-10-10T16:16:45.087Z,98148.16
2023-10-10T16:21:46.848Z,98139.66
2023-10-10T16:26:49.574Z,98145.97
2023-10-10T16:31:51.053Z,98133.94
2023-10-10T16:36:52.441Z,98142.50
2023-10-10T16:41:58.355Z,98139.41
2023-10-10T16:47:01.981Z,98130.94
2023-10-10T16:52:06.506Z,98134.72
2023-10-10T16:57:10.846Z,98135.97
2023-10-10T17:02:12.895Z,98139.91
2023-10-10T17:07:14.331Z,98131.19
2023-10-10T17:12:18.666Z,98130.00
2023-10-10T17:17:20.023Z,98128.00
2023-10-10T17:22:22.162Z,98128.00
2023-10-10T17:27:23.749Z,98129.88
2023-10-10T17:32:25.240Z,98116.81
2023-10-10T17:37:26.691Z,98121.81
2023-10-10T17:42:29.166Z,98128.50
2023-10-10T17:47:30.582Z,98124.56
2023-10-10T17:52:31.994Z,98121.88
2023-10-10T17:57:33.920Z,98114.38
2023-10-10T18:02:35.439Z,98104.78
2023-10-10T18:07:36.950Z,98104.34
2023-10-10T18:12:39.951Z,98104.72
2023-10-10T18:17:41.440Z,98108.84
2023-10-10T18:22:46.866Z,98102.84
2023-10-10T18:27:48.805Z,98106.38
2023-10-10T18:32:51.068Z,98097.22
2023-10-10T18:37:54.104Z,98105.94
2023-10-10T18:42:55.553Z,98094.88
2023-10-10T18:47:57.554Z,98107.56
2023-10-10T18:52:59.089Z,98096.75
2023-10-10T18:58:04.193Z,98094.31
2023-10-10T19:03:08.202Z,98090.19
2023-10-10T19:08:09.953Z,98086.03
2023-10-10T19:13:11.326Z,98079.22
2023-10-10T19:18:13.741Z,98081.09
2023-10-10T19:23:16.005Z,98069.66
2023-10-10T19:28:17.846Z,98079.44
2023-10-10T19:33:23.156Z,98056.16
2023-10-10T19:38:27.996Z,98063.44
2023-10-10T19:43:29.999Z,98049.13
2023-10-10T19:48:31.567Z,98049.13
2023-10-10T19:53:33.976Z,98043.72
2023-10-10T19:58:35.518Z,98032.09
2023-10-10T20:03:37.246Z,98036.69
2023-10-10T20:08:38.882Z,98037.50
2023-10-10T20:13:43.452Z,98040.41
2023-10-10T20:18:45.397Z,98031.72
2023-10-10T20:23:47.156Z,98030.06
2023-10-10T20:28:49.148Z,98025.72
2023-10-10T20:33:51.595Z,98023.84
2023-10-10T20:38:53.831Z,98026.34
2023-10-10T20:43:55.265Z,98024.22
2023-10-10T20:48:57.337Z,98021.31
2023-10-10T20:53:59.227Z,98020.03
2023-10-10T20:59:00.757Z,98023.31
2023-10-10T21:04:02.177Z,98022.28
2023-10-10T21:09:04.053Z,98010.41
2023-10-10T21:14:06.767Z,98014.31
2023-10-10T21:19:10.471Z,98011.59
2023-10-10T21:24:11.981Z,98004.56
2023-10-10T21:29:13.396Z,98008.31
2023-10-10T21:34:14.952Z,98013.72
2023-10-10T21:39:19.728Z,98017.00
2023-10-10T21:44:22.181Z,98014.91
2023-10-10T21:49:23.826Z,98018.44
2023-10-10T21:54:25.344Z,98013.84
2023-10-10T21:59:27.042Z,98003.28
2023-10-10T22:04:28.714Z,97992.69
2023-10-10T22:09:33.621Z,97979.53
2023-10-10T22:14:36.681Z,97975.25
2023-10-10T22:19:38.150Z,97957.47
2023-10-10T22:24:39.578Z,97971.28
2023-10-10T22:29:40.979Z,97973.00
2023-10-10T22:34:42.427Z,97974.72
2023-10-10T22:39:43.811Z,97955.44
2023-10-10T22:44:45.820Z,97944.88
2023-10-10T22:49:47.246Z,97952.38
2023-10-10T22:54:48.660Z,97957.41
2023-10-10T22:59:50.154Z,97960.31
2023-10-10T23:04:51.556Z,97963.84
2023-10-10T23:09:54.292Z,97962.81
2023-10-10T23:14:57.388Z,97963.63
2023-10-10T23:19:58.948Z,97960.91
2023-10-10T23:25:02.014Z,97951.19
2023-10-10T23:30:06.103Z,97943.28
2023-10-10T23:35:09.454Z,97953.28
2023-10-10T23:40:16.342Z,97957.03
2023-10-10T23:45:24.795Z,97965.13
2023-10-10T23:50:27.000Z,97965.56
2023-10-10T23:55:30.339Z,97965.78
